Flight Track Log - Related Links

Times and Time Zones

All times are in EDT time to prevent confusion due to time zone crossing. See the AAL2238 flight status page for this flight to view local times or setup timezone preferences in your user account.

Time Position Orientation Groundspeed Altitude Reporting Facility
EDT Latitude Longitude Course Direction KTS MPH feet Rate Location/Type
Sun 06:17:37 PM 32.8500 -97.0333 65° Northeast 180 207 2,600  Level Dallas / Fort Worth TRACON
Sun 06:18:37 PM 32.7833 -97.0333 180° South 231 266 5,100 2,526 Climbing Dallas / Fort Worth TRACON
Sun 06:19:00 PM 32.6931 -96.7709 68° East  Level FlightAware Approximate
Sun 06:19:31 PM 32.7667 -96.9667 107° East 259 298 7,400  Level Dallas / Fort Worth TRACON
Sun 06:20:00 PM 32.7416 -96.6255 68° East  Level FlightAware Approximate
Sun 06:21:00 PM 32.7930 -96.4816 65° Northeast  Level FlightAware Approximate
Sun 06:21:55 PM 32.8022 -96.7386 79° East 306 352 9,900  Level Fort Worth Center
Sun 06:22:00 PM 32.8477 -96.3393 65° Northeast  Level FlightAware Approximate
Sun 06:22:54 PM 32.8164 -96.6447 80° East 315 362 10,600  Level Fort Worth Center
Sun 06:23:54 PM 32.8364 -96.5108 80° East 351 404 13,100 2,650 Climbing Fort Worth Center
Sun 06:24:54 PM 32.8564 -96.3822 79° East 380 437 15,900 2,450 Climbing Fort Worth Center
Sun 06:25:54 PM 32.8656 -96.2461 85° East 401 461 18,000 2,050 Climbing Fort Worth Center
Sun 06:26:54 PM 32.8683 -96.1050 89° East 418 481 20,000 1,636 Climbing Fort Worth Center
Sun 06:27:55 PM 32.8708 -95.9542 89° East 435 501 21,300 1,550 Climbing Fort Worth Center
Sun 06:28:54 PM 32.8731 -95.8008 89° East 465 535 23,100 1,664 Climbing Fort Worth Center
Sun 06:29:54 PM 32.8753 -95.6375 89° East 470 541 24,600 1,350 Climbing Fort Worth Center
Sun 06:30:54 PM 32.8814 -95.4914 87° East 488 562 25,800 1,350 Climbing Fort Worth Center
Sun 06:31:54 PM 32.8892 -95.3206 87° East 504 580 27,300 1,400 Climbing Fort Worth Center
Sun 06:32:54 PM 32.9092 -95.1542 82° East 504 580 28,600 1,240 Climbing Fort Worth Center
Sun 06:33:55 PM 32.9372 -94.9828 79° East 509 586 29,800 1,200 Climbing Fort Worth Center
Sun 06:34:54 PM 32.9631 -94.8161 79° East 514 592 31,000 605 Climbing Fort Worth Center
Sun 06:35:54 PM 32.9867 -94.6469 81° East 514 592 31,000  Level Fort Worth Center
Sun 06:36:55 PM 33.0119 -94.4753 80° East 514 592 31,000  Level Fort Worth Center
Sun 06:37:54 PM 33.0372 -94.3086 80° East 514 592 31,000  Level Fort Worth Center
Sun 06:38:54 PM 33.0622 -94.1392 80° East 514 592 31,000  Level Fort Worth Center
Sun 06:39:54 PM 33.0847 -93.9697 81° East 514 592 31,000 50 Level Fort Worth Center
Sun 06:40:54 PM 33.1108 -93.7803 81° East 520 598 31,100 400 Climbing Fort Worth Center
Sun 06:41:54 PM 33.1369 -93.6081 80° East 525 604 31,800 700 Climbing Fort Worth Center
Sun 06:42:54 PM 33.1608 -93.4383 80° East 525 604 32,500 600 Climbing Fort Worth Center
Sun 06:43:54 PM 33.1867 -93.2633 80° East 525 604 33,000 250 Climbing Fort Worth Center
Sun 06:44:54 PM 33.2100 -93.0908 81° East 525 604 33,000  Level Fort Worth Center
Sun 06:45:54 PM 33.2353 -92.9183 80° East 525 604 33,000 250 Level Fort Worth Center
Sun 06:46:54 PM 33.2581 -92.7458 81° East 525 604 33,500 600 Climbing Fort Worth Center
Sun 06:47:54 PM 33.2747 -92.5761 83° East 525 604 34,200 608 Climbing Fort Worth Center
Sun 06:49:22 PM 33.2953 -92.3306 84° East 506 582 35,000 324 Climbing Memphis Center
Sun 06:50:22 PM 33.3103 -92.1644 84° East 501 577 35,000  Level Memphis Center
Sun 06:51:22 PM 33.3250 -92.0006 84° East 501 577 35,000  Level Memphis Center
Sun 06:52:22 PM 33.3439 -91.8294 82° East 501 577 35,000  Level Memphis Center
Sun 06:53:22 PM 33.3519 -91.6603 87° East 501 577 35,000  Level Memphis Center
Sun 06:54:22 PM 33.3661 -91.4914 84° East 501 577 35,000  Level Memphis Center
Sun 06:55:22 PM 33.3781 -91.3225 85° East 501 577 35,000  Level Memphis Center
Sun 06:56:22 PM 33.3958 -91.1533 83° East 501 577 35,000  Level Memphis Center
Sun 06:57:22 PM 33.4072 -90.9844 85° East 501 577 35,000  Level Memphis Center
Sun 06:58:22 PM 33.4206 -90.8153 85° East 501 577 35,000  Level Memphis Center
Sun 06:59:22 PM 33.4336 -90.6483 85° East 501 577 35,000  Level Memphis Center
Sun 07:00:22 PM 33.4464 -90.4792 85° East 501 577 35,000  Level Memphis Center
Sun 07:01:22 PM 33.4589 -90.3100 85° East 501 577 35,000  Level Memphis Center
Sun 07:02:22 PM 33.4650 -90.1406 87° East 501 577 35,000  Level Memphis Center
Sun 07:03:22 PM 33.4686 -89.9711 88° East 501 577 35,000  Level Memphis Center
Sun 07:04:22 PM 33.4722 -89.8044 88° East 501 577 35,000  Level Memphis Center
Sun 07:05:22 PM 33.4736 -89.6400 89° East 495 570 35,000  Level Memphis Center
Sun 07:06:22 PM 33.4767 -89.4731 89° East 495 570 35,000  Level Memphis Center
Sun 07:07:22 PM 33.4772 -89.3036 90° East 495 570 35,000  Level Memphis Center
Sun 07:08:22 PM 33.4800 -89.1369 89° East 495 570 35,000  Level Memphis Center
Sun 07:09:22 PM 33.4803 -88.9725 90° East 495 570 35,000  Level Memphis Center
Sun 07:10:22 PM 33.4825 -88.8056 89° East 495 570 35,000  Level Memphis Center
Sun 07:11:22 PM 33.4825 -88.6386 90° East 495 570 35,000  Level Memphis Center
Sun 07:12:22 PM 33.4925 -88.4742 86° East 495 570 35,000  Level Memphis Center
Sun 07:13:22 PM 33.5089 -88.3117 83° East 495 570 35,000  Level Memphis Center
Sun 07:14:53 PM 33.5386 -88.0586 82° East 512 589 35,000  Level Atlanta Center
Sun 07:15:53 PM 33.5564 -87.8975 82° East 506 582 35,000  Level Atlanta Center
Sun 07:16:53 PM 33.5739 -87.7364 83° East 494 568 35,000  Level Atlanta Center
Sun 07:17:53 PM 33.5933 -87.5700 82° East 494 568 35,000  Level Atlanta Center
Sun 07:18:53 PM 33.6125 -87.4061 82° East 494 568 35,000  Level Atlanta Center
Sun 07:19:53 PM 33.6294 -87.2447 83° East 494 568 35,000  Level Atlanta Center
Sun 07:20:53 PM 33.6456 -87.0981 82° East 500 575 35,000  Level Atlanta Center
Sun 07:21:53 PM 33.6622 -86.9339 83° East 500 575 35,000  Level Atlanta Center
Sun 07:22:53 PM 33.6681 -86.7694 88° East 495 570 35,000  Level Atlanta Center
Sun 07:23:53 PM 33.6675 -86.6022 90° East 495 570 35,000  Level Atlanta Center
Sun 07:24:53 PM 33.6644 -86.4400 91° East 495 570 35,000  Level Atlanta Center
Sun 07:25:53 PM 33.6614 -86.2700 91° East 495 570 35,000  Level Atlanta Center
Sun 07:26:53 PM 33.6600 -86.1053 91° East 495 570 35,000  Level Atlanta Center
Sun 07:27:53 PM 33.6586 -85.9381 91° East 495 570 35,000  Level Atlanta Center
Sun 07:28:53 PM 33.6589 -85.7758 90° East 495 570 35,000  Level Atlanta Center
Sun 07:29:53 PM 33.6550 -85.6061 92° East 495 570 35,000  Level Atlanta Center
Sun 07:30:53 PM 33.6506 -85.4414 92° East 495 570 35,000  Level Atlanta Center
Sun 07:31:53 PM 33.6483 -85.2742 91° East 495 570 35,000  Level Atlanta Center
Sun 07:32:53 PM 33.6436 -85.1067 92° East 500 575 35,000  Level Atlanta Center
Sun 07:33:53 PM 33.6408 -84.9369 91° East 500 575 35,000  Level Atlanta Center
Sun 07:34:53 PM 33.6378 -84.7550 91° East 494 568 35,000  Level Atlanta Center
Sun 07:35:53 PM 33.6322 -84.5853 92° East 501 577 35,000  Level Atlanta Center
Sun 07:36:53 PM 33.6286 -84.4331 92° East 509 586 35,000  Level Atlanta Center
Sun 07:37:53 PM 33.6708 -84.2686 73° East 504 580 35,000  Level Atlanta Center
Sun 07:38:53 PM 33.7211 -84.1011 70° East 515 593 35,000  Level Atlanta Center
Sun 07:39:53 PM 33.7711 -83.9339 70° East 515 593 35,000  Level Atlanta Center
Sun 07:40:53 PM 33.8189 -83.7589 72° East 520 598 35,000  Level Atlanta Center
Sun 07:41:53 PM 33.8644 -83.5908 72° East 520 598 35,000 -300 Level Atlanta Center
Sun 07:42:53 PM 33.9097 -83.4306 71° East 515 593 34,400 -650 Descending Atlanta Center
Sun 07:43:53 PM 33.9567 -83.2625 71° East 515 593 33,700 -700 Descending Atlanta Center
Sun 07:44:53 PM 34.0014 -83.0967 72° East 520 598 33,000 -700 Descending Atlanta Center
Sun 07:45:53 PM 34.0439 -82.9333 73° East 513 590 32,300 -800 Descending Atlanta Center
Sun 07:46:53 PM 34.0903 -82.7644 72° East 513 590 31,400 -1,500 Descending Atlanta Center
Sun 07:47:53 PM 34.1344 -82.5983 72° East 520 598 29,300 -2,150 Descending Atlanta Center
Sun 07:48:53 PM 34.1722 -82.4494 73° East 520 598 27,100 -1,950 Descending Atlanta Center
Sun 07:49:53 PM 34.2178 -82.2828 72° East 520 598 25,400 -1,550 Descending Atlanta Center
Sun 07:50:53 PM 34.2658 -82.1336 69° East 497 572 24,000 -1,400 Descending Atlanta Center
Sun 07:51:53 PM 34.3494 -82.0233 47° Northeast 451 519 22,600 -2,150 Descending Atlanta Center
Sun 07:52:53 PM 34.4314 -81.9233 45° Northeast 436 502 19,700 -2,000 Descending Atlanta Center
Sun 07:53:53 PM 34.5028 -81.8333 46° Northeast 398 458 18,600 -1,163 Descending Atlanta Center
Sun 07:54:31 PM 34.5581 -81.7686 44° Northeast 346 398 17,800 -1,368 Descending Atlanta Center
Sun 07:54:50 PM 34.5764 -81.7406 52° Northeast 343 395 17,300 -1,519 Descending Atlanta Center
Sun 07:55:50 PM 34.6414 -81.6581 46° Northeast 339 390 15,800 -1,537 Descending Atlanta Center
Sun 07:56:51 PM 34.7067 -81.5803 44° Northeast 332 382 14,200 -1,561 Descending Atlanta Center
Sun 07:57:53 PM 34.7697 -81.4950 48° Northeast 325 374 12,600 -1,475 Descending Atlanta Center
Sun 07:58:53 PM 34.8094 -81.4053 62° Northeast 319 367 11,200 -1,400 Descending Atlanta Center
Sun 07:59:53 PM 34.8450 -81.3131 65° Northeast 301 346 9,800 -1,650 Descending Atlanta Center
Sun 08:00:53 PM 34.8764 -81.2233 67° East 291 335 7,900 -1,328 Descending Atlanta Center
Sun 08:02:04 PM 34.9169 -81.1239 64° Northeast 261 300 6,900 -1,000 Descending FAA TRACON SMA TRACON (SMA)
Sun 08:02:23 PM 34.9272 -81.0969 65° Northeast 260 299 6,400 -1,538 Descending FAA TRACON SMA TRACON (SMA)
Sun 08:02:43 PM 34.9372 -81.0733 63° Northeast 258 297 5,900 -1,200 Descending FAA TRACON SMA TRACON (SMA)
Sun 08:03:03 PM 34.9467 -81.0494 64° Northeast 255 293 5,600 -1,050 Descending FAA TRACON SMA TRACON (SMA)
Sun 08:03:23 PM 34.9586 -81.0208 63° Northeast 249 287 5,200 -900 Descending FAA TRACON SMA TRACON (SMA)
Sun 08:03:43 PM 34.9678 -80.9978 64° Northeast 248 285 5,000 -732 Descending FAA TRACON SMA TRACON (SMA)
Sun 08:04:04 PM 34.9811 -80.9711 59° Northeast 238 274 4,700 -714 Descending FAA TRACON SMA TRACON (SMA)
Sun 08:04:25 PM 34.9989 -80.9575 32° Northeast 253 291 4,500 -600 Descending FAA TRACON SMA TRACON (SMA)
Sun 08:04:44 PM 35.0225 -80.9514 12° North 250 288 4,300 -632 Descending FAA TRACON SMA TRACON (SMA)

Login

Don't have an account? Register now (free) for customized features, flight alerts, and more!